<?xml version="1.0" encoding="UTF-8" standalone="no" ?>
<gpx xmlns="http://www.topografix.com/GPX/1/1" xmlns:xsi="http://www.w3.org/2001/XMLSchema-instance" xsi:schemaLocation="http://www.topografix.com/GPX/1/1 http://www.topografix.com/GPX/1/1/gpx.xsd" version="1.1" creator="VisuGPX - https://www.visugpx.com">
  <metadata>
    <name>Rando LN</name>
  </metadata>
  <trk>
    <name><![CDATA[Thémines]]></name>
    <extensions>
      <line xmlns="http://www.topografix.com/GPX/gpx_style/0/2">
        <color>ff000d</color>
        <width>4</width>
      </line>
    </extensions>
    <trkseg>
      <trkpt lat="44.7765" lon="1.72378">
        <ele>286.829</ele>
        <time>2020-03-06T21:25:57Z</time>
      </trkpt>
      <trkpt lat="44.7765" lon="1.72378">
        <ele>286.829</ele>
        <time>2020-03-06T21:25:57Z</time>
      </trkpt>
      <trkpt lat="44.7765" lon="1.72378">
        <ele>286.829</ele>
        <time>2020-03-06T21:25:57Z</time>
      </trkpt>
      <trkpt lat="44.7765" lon="1.72378">
        <ele>286.829</ele>
        <time>2020-03-06T21:25:57Z</time>
      </trkpt>
      <trkpt lat="44.7765" lon="1.72378">
        <ele>286.829</ele>
        <time>2020-03-06T21:25:57Z</time>
      </trkpt>
      <trkpt lat="44.7765" lon="1.72378">
        <ele>286.829</ele>
        <time>2020-03-06T21:25:57Z</time>
      </trkpt>
      <trkpt lat="44.7765" lon="1.72378">
        <ele>286.829</ele>
        <time>2020-03-06T21:25:57Z</time>
      </trkpt>
      <trkpt lat="44.77663" lon="1.725">
        <ele>285.321</ele>
        <time>2020-03-06T21:26:17Z</time>
      </trkpt>
      <trkpt lat="44.77654" lon="1.72537">
        <ele>287.208</ele>
        <time>2020-03-06T21:26:37Z</time>
      </trkpt>
      <trkpt lat="44.77492" lon="1.7267">
        <ele>289.922</ele>
        <time>2020-03-06T21:26:57Z</time>
      </trkpt>
      <trkpt lat="44.77445" lon="1.72736">
        <ele>288.047</ele>
        <time>2020-03-06T21:27:17Z</time>
      </trkpt>
      <trkpt lat="44.77431" lon="1.72777">
        <ele>288.067</ele>
        <time>2020-03-06T21:27:37Z</time>
      </trkpt>
      <trkpt lat="44.77445" lon="1.72799">
        <ele>289.579</ele>
        <time>2020-03-06T21:27:57Z</time>
      </trkpt>
      <trkpt lat="44.77452" lon="1.7293">
        <ele>299.331</ele>
        <time>2020-03-06T21:28:17Z</time>
      </trkpt>
      <trkpt lat="44.77446" lon="1.73009">
        <ele>302.832</ele>
        <time>2020-03-06T21:28:37Z</time>
      </trkpt>
      <trkpt lat="44.77398" lon="1.73039">
        <ele>296.668</ele>
        <time>2020-03-06T21:28:57Z</time>
      </trkpt>
      <trkpt lat="44.7735" lon="1.73106">
        <ele>293.88</ele>
        <time>2020-03-06T21:29:17Z</time>
      </trkpt>
      <trkpt lat="44.77305" lon="1.73127">
        <ele>291.542</ele>
        <time>2020-03-06T21:29:37Z</time>
      </trkpt>
      <trkpt lat="44.7725" lon="1.73131">
        <ele>291.522</ele>
        <time>2020-03-06T21:29:57Z</time>
      </trkpt>
      <trkpt lat="44.77193" lon="1.73129">
        <ele>296.514</ele>
        <time>2020-03-06T21:30:17Z</time>
      </trkpt>
      <trkpt lat="44.77139" lon="1.73163">
        <ele>294.908</ele>
        <time>2020-03-06T21:30:37Z</time>
      </trkpt>
      <trkpt lat="44.77085" lon="1.73174">
        <ele>299.89</ele>
        <time>2020-03-06T21:30:57Z</time>
      </trkpt>
      <trkpt lat="44.76976" lon="1.73307">
        <ele>292.255</ele>
        <time>2020-03-06T21:31:17Z</time>
      </trkpt>
      <trkpt lat="44.76933" lon="1.73369">
        <ele>287.525</ele>
        <time>2020-03-06T21:31:37Z</time>
      </trkpt>
      <trkpt lat="44.76864" lon="1.73438">
        <ele>294.187</ele>
        <time>2020-03-06T21:31:57Z</time>
      </trkpt>
      <trkpt lat="44.76823" lon="1.73451">
        <ele>295.659</ele>
        <time>2020-03-06T21:32:17Z</time>
      </trkpt>
      <trkpt lat="44.76759" lon="1.73556">
        <ele>293.01</ele>
        <time>2020-03-06T21:32:37Z</time>
      </trkpt>
      <trkpt lat="44.76549" lon="1.73653">
        <ele>299.416</ele>
        <time>2020-03-06T21:32:57Z</time>
      </trkpt>
      <trkpt lat="44.76508" lon="1.73743">
        <ele>306.098</ele>
        <time>2020-03-06T21:33:17Z</time>
      </trkpt>
      <trkpt lat="44.76461" lon="1.73809">
        <ele>305.336</ele>
        <time>2020-03-06T21:33:37Z</time>
      </trkpt>
      <trkpt lat="44.76433" lon="1.73906">
        <ele>306.017</ele>
        <time>2020-03-06T21:33:57Z</time>
      </trkpt>
      <trkpt lat="44.76403" lon="1.73966">
        <ele>306.618</ele>
        <time>2020-03-06T21:34:17Z</time>
      </trkpt>
      <trkpt lat="44.76327" lon="1.74007">
        <ele>301.908</ele>
        <time>2020-03-06T21:34:37Z</time>
      </trkpt>
      <trkpt lat="44.76202" lon="1.74065">
        <ele>308.069</ele>
        <time>2020-03-06T21:34:57Z</time>
      </trkpt>
      <trkpt lat="44.76112" lon="1.74146">
        <ele>309.654</ele>
        <time>2020-03-06T21:35:17Z</time>
      </trkpt>
      <trkpt lat="44.76084" lon="1.74153">
        <ele>308.184</ele>
        <time>2020-03-06T21:35:37Z</time>
      </trkpt>
      <trkpt lat="44.76023" lon="1.74204">
        <ele>304.156</ele>
        <time>2020-03-06T21:35:57Z</time>
      </trkpt>
      <trkpt lat="44.76002" lon="1.74292">
        <ele>304.368</ele>
        <time>2020-03-06T21:36:17Z</time>
      </trkpt>
      <trkpt lat="44.75999" lon="1.74348">
        <ele>306.429</ele>
        <time>2020-03-06T21:36:37Z</time>
      </trkpt>
      <trkpt lat="44.75899" lon="1.74487">
        <ele>307.595</ele>
        <time>2020-03-06T21:36:57Z</time>
      </trkpt>
      <trkpt lat="44.75795" lon="1.74603">
        <ele>313.267</ele>
        <time>2020-03-06T21:37:17Z</time>
      </trkpt>
      <trkpt lat="44.75699" lon="1.74642">
        <ele>317.093</ele>
        <time>2020-03-06T21:37:37Z</time>
      </trkpt>
      <trkpt lat="44.75667" lon="1.74642">
        <ele>316.965</ele>
        <time>2020-03-06T21:37:57Z</time>
      </trkpt>
      <trkpt lat="44.75644" lon="1.74668">
        <ele>315.221</ele>
        <time>2020-03-06T21:38:17Z</time>
      </trkpt>
      <trkpt lat="44.75594" lon="1.74846">
        <ele>311.608</ele>
        <time>2020-03-06T21:38:37Z</time>
      </trkpt>
      <trkpt lat="44.75588" lon="1.74908">
        <ele>311.365</ele>
        <time>2020-03-06T21:38:57Z</time>
      </trkpt>
      <trkpt lat="44.75565" lon="1.74953">
        <ele>306.93</ele>
        <time>2020-03-06T21:39:17Z</time>
      </trkpt>
      <trkpt lat="44.75493" lon="1.75013">
        <ele>307.79</ele>
        <time>2020-03-06T21:39:37Z</time>
      </trkpt>
      <trkpt lat="44.75454" lon="1.75062">
        <ele>314.432</ele>
        <time>2020-03-06T21:39:57Z</time>
      </trkpt>
      <trkpt lat="44.75412" lon="1.75071">
        <ele>312.944</ele>
        <time>2020-03-06T21:40:17Z</time>
      </trkpt>
      <trkpt lat="44.75387" lon="1.75095">
        <ele>313.545</ele>
        <time>2020-03-06T21:40:37Z</time>
      </trkpt>
      <trkpt lat="44.75339" lon="1.75065">
        <ele>313.481</ele>
        <time>2020-03-06T21:40:57Z</time>
      </trkpt>
      <trkpt lat="44.75286" lon="1.75002">
        <ele>310.423</ele>
        <time>2020-03-06T21:41:17Z</time>
      </trkpt>
      <trkpt lat="44.75208" lon="1.75047">
        <ele>314.943</ele>
        <time>2020-03-06T21:41:37Z</time>
      </trkpt>
      <trkpt lat="44.75152" lon="1.75095">
        <ele>313.364</ele>
        <time>2020-03-06T21:41:57Z</time>
      </trkpt>
      <trkpt lat="44.75097" lon="1.75088">
        <ele>305.91</ele>
        <time>2020-03-06T21:42:17Z</time>
      </trkpt>
      <trkpt lat="44.7501" lon="1.7505">
        <ele>305.108</ele>
        <time>2020-03-06T21:42:37Z</time>
      </trkpt>
      <trkpt lat="44.74967" lon="1.75077">
        <ele>304.65</ele>
        <time>2020-03-06T21:42:57Z</time>
      </trkpt>
      <trkpt lat="44.74935" lon="1.75123">
        <ele>305.435</ele>
        <time>2020-03-06T21:43:17Z</time>
      </trkpt>
      <trkpt lat="44.74908" lon="1.75221">
        <ele>305.165</ele>
        <time>2020-03-06T21:43:37Z</time>
      </trkpt>
      <trkpt lat="44.74893" lon="1.75296">
        <ele>305.077</ele>
        <time>2020-03-06T21:43:57Z</time>
      </trkpt>
      <trkpt lat="44.74811" lon="1.75331">
        <ele>307.499</ele>
        <time>2020-03-06T21:44:17Z</time>
      </trkpt>
      <trkpt lat="44.74806" lon="1.75365">
        <ele>305.87</ele>
        <time>2020-03-06T21:44:37Z</time>
      </trkpt>
      <trkpt lat="44.74812" lon="1.7544">
        <ele>304.516</ele>
        <time>2020-03-06T21:44:57Z</time>
      </trkpt>
      <trkpt lat="44.74768" lon="1.75532">
        <ele>310.278</ele>
        <time>2020-03-06T21:45:17Z</time>
      </trkpt>
      <trkpt lat="44.7474" lon="1.75618">
        <ele>311.371</ele>
        <time>2020-03-06T21:45:37Z</time>
      </trkpt>
      <trkpt lat="44.74739" lon="1.75659">
        <ele>312.441</ele>
        <time>2020-03-06T21:45:57Z</time>
      </trkpt>
      <trkpt lat="44.74727" lon="1.75708">
        <ele>313.315</ele>
        <time>2020-03-06T21:46:17Z</time>
      </trkpt>
      <trkpt lat="44.7475" lon="1.75749">
        <ele>312.008</ele>
        <time>2020-03-06T21:46:37Z</time>
      </trkpt>
      <trkpt lat="44.74747" lon="1.75852">
        <ele>314.853</ele>
        <time>2020-03-06T21:46:57Z</time>
      </trkpt>
      <trkpt lat="44.74794" lon="1.75869">
        <ele>311.318</ele>
        <time>2020-03-06T21:47:17Z</time>
      </trkpt>
      <trkpt lat="44.74847" lon="1.75927">
        <ele>306.078</ele>
        <time>2020-03-06T21:47:37Z</time>
      </trkpt>
      <trkpt lat="44.7489" lon="1.76017">
        <ele>302.51</ele>
        <time>2020-03-06T21:47:57Z</time>
      </trkpt>
      <trkpt lat="44.74972" lon="1.76127">
        <ele>312.042</ele>
        <time>2020-03-06T21:48:17Z</time>
      </trkpt>
      <trkpt lat="44.75031" lon="1.76195">
        <ele>312.493</ele>
        <time>2020-03-06T21:48:37Z</time>
      </trkpt>
      <trkpt lat="44.75053" lon="1.76249">
        <ele>312.939</ele>
        <time>2020-03-06T21:48:57Z</time>
      </trkpt>
      <trkpt lat="44.75068" lon="1.76335">
        <ele>313.351</ele>
        <time>2020-03-06T21:49:17Z</time>
      </trkpt>
      <trkpt lat="44.75068" lon="1.76446">
        <ele>311.042</ele>
        <time>2020-03-06T21:49:37Z</time>
      </trkpt>
      <trkpt lat="44.75079" lon="1.76685">
        <ele>313.822</ele>
        <time>2020-03-06T21:49:57Z</time>
      </trkpt>
      <trkpt lat="44.75077" lon="1.76886">
        <ele>325.014</ele>
        <time>2020-03-06T21:50:17Z</time>
      </trkpt>
      <trkpt lat="44.75042" lon="1.77009">
        <ele>331.308</ele>
        <time>2020-03-06T21:50:37Z</time>
      </trkpt>
      <trkpt lat="44.75038" lon="1.77095">
        <ele>335.37</ele>
        <time>2020-03-06T21:50:57Z</time>
      </trkpt>
      <trkpt lat="44.75044" lon="1.77187">
        <ele>335.345</ele>
        <time>2020-03-06T21:51:17Z</time>
      </trkpt>
      <trkpt lat="44.75033" lon="1.77268">
        <ele>338.125</ele>
        <time>2020-03-06T21:51:37Z</time>
      </trkpt>
      <trkpt lat="44.75038" lon="1.77294">
        <ele>338.717</ele>
        <time>2020-03-06T21:51:57Z</time>
      </trkpt>
      <trkpt lat="44.75059" lon="1.77313">
        <ele>338.929</ele>
        <time>2020-03-06T21:52:17Z</time>
      </trkpt>
      <trkpt lat="44.75056" lon="1.77348">
        <ele>340.53</ele>
        <time>2020-03-06T21:52:37Z</time>
      </trkpt>
      <trkpt lat="44.75021" lon="1.77513">
        <ele>342.226</ele>
        <time>2020-03-06T21:52:57Z</time>
      </trkpt>
      <trkpt lat="44.74984" lon="1.77616">
        <ele>342.398</ele>
        <time>2020-03-06T21:53:17Z</time>
      </trkpt>
      <trkpt lat="44.74945" lon="1.77691">
        <ele>343.025</ele>
        <time>2020-03-06T21:53:37Z</time>
      </trkpt>
      <trkpt lat="44.7492" lon="1.77708">
        <ele>344.726</ele>
        <time>2020-03-06T21:53:57Z</time>
      </trkpt>
      <trkpt lat="44.74885" lon="1.77788">
        <ele>346.108</ele>
        <time>2020-03-06T21:54:17Z</time>
      </trkpt>
      <trkpt lat="44.74839" lon="1.77798">
        <ele>345.208</ele>
        <time>2020-03-06T21:54:37Z</time>
      </trkpt>
      <trkpt lat="44.74807" lon="1.77848">
        <ele>345.528</ele>
        <time>2020-03-06T21:54:57Z</time>
      </trkpt>
      <trkpt lat="44.74789" lon="1.77856">
        <ele>346.883</ele>
        <time>2020-03-06T21:55:17Z</time>
      </trkpt>
      <trkpt lat="44.7475" lon="1.77934">
        <ele>347.833</ele>
        <time>2020-03-06T21:55:37Z</time>
      </trkpt>
      <trkpt lat="44.74701" lon="1.77936">
        <ele>347.165</ele>
        <time>2020-03-06T21:55:57Z</time>
      </trkpt>
      <trkpt lat="44.74635" lon="1.77934">
        <ele>348.417</ele>
        <time>2020-03-06T21:56:17Z</time>
      </trkpt>
      <trkpt lat="44.74562" lon="1.77912">
        <ele>349.738</ele>
        <time>2020-03-06T21:56:37Z</time>
      </trkpt>
      <trkpt lat="44.74504" lon="1.77929">
        <ele>342.814</ele>
        <time>2020-03-06T21:56:57Z</time>
      </trkpt>
      <trkpt lat="44.74436" lon="1.77968">
        <ele>340.986</ele>
        <time>2020-03-06T21:57:17Z</time>
      </trkpt>
      <trkpt lat="44.74423" lon="1.77998">
        <ele>342.967</ele>
        <time>2020-03-06T21:57:37Z</time>
      </trkpt>
      <trkpt lat="44.74426" lon="1.78064">
        <ele>344.381</ele>
        <time>2020-03-06T21:57:57Z</time>
      </trkpt>
      <trkpt lat="44.74353" lon="1.78043">
        <ele>344.019</ele>
        <time>2020-03-06T21:58:17Z</time>
      </trkpt>
      <trkpt lat="44.74273" lon="1.78067">
        <ele>345.008</ele>
        <time>2020-03-06T21:58:37Z</time>
      </trkpt>
      <trkpt lat="44.74231" lon="1.78131">
        <ele>343.222</ele>
        <time>2020-03-06T21:58:57Z</time>
      </trkpt>
      <trkpt lat="44.74192" lon="1.78273">
        <ele>346.837</ele>
        <time>2020-03-06T21:59:17Z</time>
      </trkpt>
      <trkpt lat="44.74175" lon="1.78367">
        <ele>342.027</ele>
        <time>2020-03-06T21:59:37Z</time>
      </trkpt>
      <trkpt lat="44.74175" lon="1.7841">
        <ele>345.929</ele>
        <time>2020-03-06T21:59:57Z</time>
      </trkpt>
      <trkpt lat="44.74163" lon="1.78498">
        <ele>349.821</ele>
        <time>2020-03-06T22:00:17Z</time>
      </trkpt>
      <trkpt lat="44.74163" lon="1.78586">
        <ele>345.862</ele>
        <time>2020-03-06T22:00:37Z</time>
      </trkpt>
      <trkpt lat="44.74158" lon="1.7865">
        <ele>345.368</ele>
        <time>2020-03-06T22:00:57Z</time>
      </trkpt>
      <trkpt lat="44.74173" lon="1.78691">
        <ele>345.14</ele>
        <time>2020-03-06T22:01:17Z</time>
      </trkpt>
      <trkpt lat="44.74256" lon="1.78732">
        <ele>338.998</ele>
        <time>2020-03-06T22:01:37Z</time>
      </trkpt>
      <trkpt lat="44.74294" lon="1.78719">
        <ele>335.715</ele>
        <time>2020-03-06T22:01:57Z</time>
      </trkpt>
      <trkpt lat="44.7441" lon="1.78783">
        <ele>332.426</ele>
        <time>2020-03-06T22:02:17Z</time>
      </trkpt>
      <trkpt lat="44.74414" lon="1.78822">
        <ele>333.608</ele>
        <time>2020-03-06T22:02:37Z</time>
      </trkpt>
      <trkpt lat="44.74396" lon="1.78903">
        <ele>335.865</ele>
        <time>2020-03-06T22:02:57Z</time>
      </trkpt>
      <trkpt lat="44.74402" lon="1.78957">
        <ele>338.99</ele>
        <time>2020-03-06T22:03:17Z</time>
      </trkpt>
      <trkpt lat="44.74495" lon="1.79174">
        <ele>346.65</ele>
        <time>2020-03-06T22:03:37Z</time>
      </trkpt>
      <trkpt lat="44.74597" lon="1.793">
        <ele>343.342</ele>
        <time>2020-03-06T22:03:57Z</time>
      </trkpt>
      <trkpt lat="44.74689" lon="1.7933">
        <ele>337.794</ele>
        <time>2020-03-06T22:04:17Z</time>
      </trkpt>
      <trkpt lat="44.74736" lon="1.79386">
        <ele>339.545</ele>
        <time>2020-03-06T22:04:37Z</time>
      </trkpt>
      <trkpt lat="44.74818" lon="1.79433">
        <ele>335.981</ele>
        <time>2020-03-06T22:04:57Z</time>
      </trkpt>
      <trkpt lat="44.74961" lon="1.79601">
        <ele>341.263</ele>
        <time>2020-03-06T22:05:17Z</time>
      </trkpt>
      <trkpt lat="44.74963" lon="1.79657">
        <ele>340.478</ele>
        <time>2020-03-06T22:05:37Z</time>
      </trkpt>
      <trkpt lat="44.74974" lon="1.79727">
        <ele>337.733</ele>
        <time>2020-03-06T22:05:57Z</time>
      </trkpt>
      <trkpt lat="44.74937" lon="1.79734">
        <ele>336.726</ele>
        <time>2020-03-06T22:06:17Z</time>
      </trkpt>
      <trkpt lat="44.74886" lon="1.79803">
        <ele>335.908</ele>
        <time>2015-08-04T17:28:15Z</time>
      </trkpt>
      <trkpt lat="44.74864" lon="1.79799">
        <ele>335.353</ele>
        <time>2015-08-04T17:28:35Z</time>
      </trkpt>
      <trkpt lat="44.74806" lon="1.79939">
        <ele>330.298</ele>
        <time>2015-08-04T17:28:55Z</time>
      </trkpt>
      <trkpt lat="44.74907" lon="1.80103">
        <ele>328.628</ele>
        <time>2020-03-06T22:07:37Z</time>
      </trkpt>
      <trkpt lat="44.74788" lon="1.80225">
        <ele>328.34</ele>
        <time>2015-08-04T17:29:35Z</time>
      </trkpt>
      <trkpt lat="44.74778" lon="1.80274">
        <ele>328.042</ele>
        <time>2015-08-04T17:29:55Z</time>
      </trkpt>
      <trkpt lat="44.74786" lon="1.80289">
        <ele>328.793</ele>
        <time>2015-08-04T17:30:15Z</time>
      </trkpt>
      <trkpt lat="44.7478" lon="1.8032">
        <ele>329.129</ele>
        <time>2015-08-04T17:30:35Z</time>
      </trkpt>
      <trkpt lat="44.74781" lon="1.8034">
        <ele>328.871</ele>
        <time>2015-08-04T17:30:55Z</time>
      </trkpt>
      <trkpt lat="44.74813" lon="1.80384">
        <ele>327.467</ele>
        <time>2015-08-04T17:31:15Z</time>
      </trkpt>
      <trkpt lat="44.74854" lon="1.80415">
        <ele>329.481</ele>
        <time>2015-08-04T17:31:35Z</time>
      </trkpt>
      <trkpt lat="44.7487" lon="1.8048">
        <ele>330.519</ele>
        <time>2015-08-04T17:31:55Z</time>
      </trkpt>
      <trkpt lat="44.74866" lon="1.80546">
        <ele>331.208</ele>
        <time>2015-08-04T17:32:15Z</time>
      </trkpt>
      <trkpt lat="44.74847" lon="1.80602">
        <ele>332.212</ele>
        <time>2015-08-04T17:32:35Z</time>
      </trkpt>
      <trkpt lat="44.74846" lon="1.8074">
        <ele>331.027</ele>
        <time>2015-08-04T17:32:55Z</time>
      </trkpt>
      <trkpt lat="44.74871" lon="1.8081">
        <ele>333.377</ele>
        <time>2015-08-04T17:33:15Z</time>
      </trkpt>
      <trkpt lat="44.74868" lon="1.80865">
        <ele>332.999</ele>
        <time>2015-08-04T17:33:35Z</time>
      </trkpt>
      <trkpt lat="44.74854" lon="1.80908">
        <ele>332.441</ele>
        <time>2015-08-04T17:33:55Z</time>
      </trkpt>
      <trkpt lat="44.74835" lon="1.81002">
        <ele>336.112</ele>
        <time>2015-08-04T17:34:15Z</time>
      </trkpt>
      <trkpt lat="44.74816" lon="1.80994">
        <ele>333.748</ele>
        <time>2015-08-04T17:34:35Z</time>
      </trkpt>
      <trkpt lat="44.7477" lon="1.81023">
        <ele>325.71</ele>
        <time>2015-08-04T17:34:55Z</time>
      </trkpt>
      <trkpt lat="44.74768" lon="1.81111">
        <ele>324.699</ele>
        <time>2015-08-04T17:35:15Z</time>
      </trkpt>
      <trkpt lat="44.74753" lon="1.81126">
        <ele>322.307</ele>
        <time>2015-08-04T17:35:35Z</time>
      </trkpt>
      <trkpt lat="44.74729" lon="1.81124">
        <ele>322.727</ele>
        <time>2015-08-04T17:35:55Z</time>
      </trkpt>
      <trkpt lat="44.74712" lon="1.81102">
        <ele>322.508</ele>
        <time>2015-08-04T17:36:15Z</time>
      </trkpt>
      <trkpt lat="44.74691" lon="1.81132">
        <ele>328.295</ele>
        <time>2015-08-04T17:36:35Z</time>
      </trkpt>
      <trkpt lat="44.74691" lon="1.81157">
        <ele>330.56</ele>
        <time>2015-08-04T17:36:55Z</time>
      </trkpt>
      <trkpt lat="44.74711" lon="1.81196">
        <ele>330.76</ele>
        <time>2015-08-04T17:37:15Z</time>
      </trkpt>
      <trkpt lat="44.74669" lon="1.81184">
        <ele>333.612</ele>
        <time>2015-08-04T17:37:35Z</time>
      </trkpt>
      <trkpt lat="44.74664" lon="1.81236">
        <ele>336.434</ele>
        <time>2015-08-04T17:37:55Z</time>
      </trkpt>
      <trkpt lat="44.74687" lon="1.81284">
        <ele>337.215</ele>
        <time>2015-08-04T17:38:15Z</time>
      </trkpt>
      <trkpt lat="44.74769" lon="1.81377">
        <ele>339.061</ele>
        <time>2015-08-04T17:38:35Z</time>
      </trkpt>
      <trkpt lat="44.74805" lon="1.81399">
        <ele>338.433</ele>
        <time>2015-08-04T17:38:55Z</time>
      </trkpt>
      <trkpt lat="44.74814" lon="1.81418">
        <ele>338.277</ele>
        <time>2015-08-04T17:39:15Z</time>
      </trkpt>
      <trkpt lat="44.74809" lon="1.81481">
        <ele>339.861</ele>
        <time>2015-08-04T17:39:35Z</time>
      </trkpt>
      <trkpt lat="44.74793" lon="1.81491">
        <ele>340.527</ele>
        <time>2015-08-04T17:39:55Z</time>
      </trkpt>
      <trkpt lat="44.74768" lon="1.81549">
        <ele>340.408</ele>
        <time>2015-08-04T17:40:15Z</time>
      </trkpt>
      <trkpt lat="44.74731" lon="1.81586">
        <ele>339.773</ele>
        <time>2015-08-04T17:40:35Z</time>
      </trkpt>
      <trkpt lat="44.74681" lon="1.81899">
        <ele>347.888</ele>
        <time>2015-08-04T17:40:55Z</time>
      </trkpt>
      <trkpt lat="44.7471" lon="1.8197">
        <ele>348.588</ele>
        <time>2015-08-04T17:41:15Z</time>
      </trkpt>
      <trkpt lat="44.74744" lon="1.82019">
        <ele>349.79</ele>
        <time>2015-08-04T17:41:35Z</time>
      </trkpt>
      <trkpt lat="44.74748" lon="1.82056">
        <ele>350.852</ele>
        <time>2015-08-04T17:41:55Z</time>
      </trkpt>
      <trkpt lat="44.74756" lon="1.82077">
        <ele>351.023</ele>
        <time>2015-08-04T17:42:15Z</time>
      </trkpt>
      <trkpt lat="44.74758" lon="1.82098">
        <ele>350.529</ele>
        <time>2015-08-04T17:42:35Z</time>
      </trkpt>
      <trkpt lat="44.74745" lon="1.82161">
        <ele>347.011</ele>
        <time>2015-08-04T17:42:55Z</time>
      </trkpt>
      <trkpt lat="44.7474" lon="1.82236">
        <ele>346.836</ele>
        <time>2015-08-04T17:43:15Z</time>
      </trkpt>
      <trkpt lat="44.74764" lon="1.8228">
        <ele>350.617</ele>
        <time>2015-08-04T17:43:35Z</time>
      </trkpt>
      <trkpt lat="44.74853" lon="1.82386">
        <ele>349.318</ele>
        <time>2015-08-04T17:43:55Z</time>
      </trkpt>
      <trkpt lat="44.74779" lon="1.82476">
        <ele>350.108</ele>
        <time>2015-08-04T17:44:15Z</time>
      </trkpt>
      <trkpt lat="44.74608" lon="1.82562">
        <ele>351.029</ele>
        <time>2015-08-04T17:44:35Z</time>
      </trkpt>
      <trkpt lat="44.74585" lon="1.82567">
        <ele>352.454</ele>
        <time>2015-08-04T17:44:55Z</time>
      </trkpt>
      <trkpt lat="44.74502" lon="1.82591">
        <ele>360.584</ele>
        <time>2015-08-04T17:45:15Z</time>
      </trkpt>
      <trkpt lat="44.74462" lon="1.82585">
        <ele>361.056</ele>
        <time>2015-08-04T17:45:35Z</time>
      </trkpt>
      <trkpt lat="44.74434" lon="1.82572">
        <ele>360.638</ele>
        <time>2015-08-04T17:45:55Z</time>
      </trkpt>
      <trkpt lat="44.74398" lon="1.8253">
        <ele>360.739</ele>
        <time>2015-08-04T17:46:15Z</time>
      </trkpt>
      <trkpt lat="44.74367" lon="1.82508">
        <ele>360.025</ele>
        <time>2015-08-04T17:46:35Z</time>
      </trkpt>
      <trkpt lat="44.74332" lon="1.82497">
        <ele>357.517</ele>
        <time>2015-08-04T17:46:55Z</time>
      </trkpt>
      <trkpt lat="44.74272" lon="1.82541">
        <ele>355.612</ele>
        <time>2015-08-04T17:47:15Z</time>
      </trkpt>
      <trkpt lat="44.74184" lon="1.8263">
        <ele>353.032</ele>
        <time>2015-08-04T17:47:35Z</time>
      </trkpt>
      <trkpt lat="44.74143" lon="1.82638">
        <ele>352.905</ele>
        <time>2015-08-04T17:47:55Z</time>
      </trkpt>
      <trkpt lat="44.74095" lon="1.82657">
        <ele>351.208</ele>
        <time>2015-08-04T17:48:15Z</time>
      </trkpt>
      <trkpt lat="44.74073" lon="1.82673">
        <ele>349.747</ele>
        <time>2015-08-04T17:48:35Z</time>
      </trkpt>
      <trkpt lat="44.74059" lon="1.82676">
        <ele>348.322</ele>
        <time>2015-08-04T17:48:55Z</time>
      </trkpt>
      <trkpt lat="44.74045" lon="1.82642">
        <ele>345.532</ele>
        <time>2015-08-04T17:49:15Z</time>
      </trkpt>
      <trkpt lat="44.74008" lon="1.82651">
        <ele>343.154</ele>
        <time>2015-08-04T17:49:35Z</time>
      </trkpt>
      <trkpt lat="44.73987" lon="1.82666">
        <ele>340.696</ele>
        <time>2015-08-04T17:49:55Z</time>
      </trkpt>
      <trkpt lat="44.73983" lon="1.82694">
        <ele>341.737</ele>
        <time>2015-08-04T17:50:15Z</time>
      </trkpt>
      <trkpt lat="44.73967" lon="1.82726">
        <ele>340.193</ele>
        <time>2015-08-04T17:50:35Z</time>
      </trkpt>
      <trkpt lat="44.73951" lon="1.82771">
        <ele>334.725</ele>
        <time>2015-08-04T17:50:55Z</time>
      </trkpt>
      <trkpt lat="44.73964" lon="1.828">
        <ele>331.559</ele>
        <time>2015-08-04T17:51:15Z</time>
      </trkpt>
      <trkpt lat="44.73964" lon="1.82826">
        <ele>327.203</ele>
        <time>2015-08-04T17:51:35Z</time>
      </trkpt>
    </trkseg>
  </trk>
</gpx>